createdAt,value
2023-05-31T00:00:01.039Z,1.40
2023-05-31T00:01:01.263Z,1.39
2023-05-31T00:02:01.133Z,1.45
2023-05-31T00:03:01.283Z,1.39
2023-05-31T00:04:01.298Z,1.42
2023-05-31T00:05:01.284Z,1.44
2023-05-31T00:06:01.378Z,1.42
2023-05-31T00:07:01.366Z,1.42
2023-05-31T00:08:01.396Z,1.39
2023-05-31T00:09:01.454Z,1.39
2023-05-31T00:10:01.513Z,1.41
2023-05-31T00:11:01.855Z,1.42
2023-05-31T00:12:01.635Z,1.41
2023-05-31T00:13:01.719Z,1.39
2023-05-31T00:14:01.737Z,1.41
2023-05-31T00:15:01.879Z,1.41
2023-05-31T00:16:01.888Z,1.42
2023-05-31T00:17:20.566Z,1.45
2023-05-31T00:18:02.945Z,1.45
2023-05-31T00:19:01.977Z,1.45
2023-05-31T00:20:01.927Z,1.44
2023-05-31T00:21:02.071Z,1.43
2023-05-31T00:22:01.951Z,1.46
2023-05-31T00:23:01.914Z,1.43
2023-05-31T00:24:01.904Z,1.42
2023-05-31T00:25:01.878Z,1.41
2023-05-31T00:26:01.852Z,1.43
2023-05-31T00:27:01.941Z,1.42
2023-05-31T00:28:02.084Z,1.46
2023-05-31T00:29:02.047Z,1.45
2023-05-31T00:30:02.106Z,1.45
2023-05-31T00:31:02.307Z,1.47
2023-05-31T00:32:02.226Z,1.44
2023-05-31T00:33:02.394Z,1.46
2023-05-31T00:34:02.404Z,1.43
2023-05-31T00:35:02.467Z,1.42
2023-05-31T00:36:02.451Z,1.43
2023-05-31T00:37:02.529Z,1.44
2023-05-31T00:38:02.695Z,1.45
2023-05-31T00:39:02.638Z,1.44
2023-05-31T00:40:02.729Z,1.46
2023-05-31T00:41:02.754Z,1.43
2023-05-31T00:42:02.799Z,1.44
2023-05-31T00:43:02.862Z,1.42
2023-05-31T00:44:02.917Z,1.45
2023-05-31T00:45:03.019Z,1.45
2023-05-31T00:46:03.098Z,1.44
2023-05-31T00:47:03.111Z,1.44
2023-05-31T00:48:03.224Z,1.47
2023-05-31T00:49:03.246Z,1.43
2023-05-31T00:50:03.264Z,1.44
2023-05-31T00:51:03.460Z,1.47
2023-05-31T00:52:03.452Z,1.44
2023-05-31T00:53:03.455Z,1.47
2023-05-31T00:54:03.567Z,1.46
2023-05-31T00:55:03.619Z,1.46
2023-05-31T00:56:03.668Z,1.44
2023-05-31T00:57:03.728Z,1.45
2023-05-31T00:58:03.795Z,1.47
2023-05-31T00:59:03.828Z,1.48
2023-05-31T01:00:03.872Z,1.46
2023-05-31T01:01:04.036Z,1.49
2023-05-31T01:02:04.057Z,1.46
2023-05-31T01:03:04.236Z,1.45
2023-05-31T01:04:04.470Z,1.45
2023-05-31T01:05:04.201Z,1.43
2023-05-31T01:06:04.230Z,1.48
2023-05-31T01:07:04.307Z,1.46
2023-05-31T01:08:04.371Z,1.44
2023-05-31T01:09:04.422Z,1.52
2023-05-31T01:10:04.480Z,1.47
2023-05-31T01:11:04.536Z,1.48
2023-05-31T01:12:04.595Z,1.47
2023-05-31T01:13:04.601Z,1.50
2023-05-31T01:14:04.666Z,1.47
2023-05-31T01:15:04.732Z,1.45
2023-05-31T01:16:04.818Z,1.48
2023-05-31T01:17:04.836Z,1.48
2023-05-31T01:18:04.985Z,1.48
2023-05-31T01:19:04.961Z,1.50
2023-05-31T01:20:05.320Z,1.50
2023-05-31T01:21:05.119Z,1.50
2023-05-31T01:22:05.129Z,1.49
2023-05-31T01:23:05.196Z,1.49
2023-05-31T01:24:05.221Z,1.52
2023-05-31T01:25:05.306Z,1.49
2023-05-31T01:26:05.380Z,1.48
2023-05-31T01:27:05.421Z,1.48
2023-05-31T01:28:05.450Z,1.48
2023-05-31T01:29:05.586Z,1.46
2023-05-31T01:30:05.612Z,1.51
2023-05-31T01:31:05.656Z,1.48
2023-05-31T01:32:05.760Z,1.49
2023-05-31T01:33:05.811Z,1.50
2023-05-31T01:34:05.915Z,1.51
2023-05-31T01:35:05.928Z,1.50
2023-05-31T01:36:05.943Z,1.50
2023-05-31T01:37:06.029Z,1.48
2023-05-31T01:38:06.107Z,1.50
2023-05-31T01:39:06.168Z,1.49
2023-05-31T01:40:06.239Z,1.51
2023-05-31T01:41:06.230Z,1.50
2023-05-31T01:42:06.370Z,1.49
2023-05-31T01:43:06.399Z,1.52
2023-05-31T01:44:06.419Z,1.45
2023-05-31T01:45:06.516Z,1.47
2023-05-31T01:46:06.597Z,1.49
2023-05-31T01:47:06.617Z,1.51
2023-05-31T01:48:06.740Z,1.50
2023-05-31T01:49:06.699Z,1.49
2023-05-31T01:50:06.818Z,1.49
2023-05-31T01:51:06.763Z,1.53
2023-05-31T01:52:06.819Z,1.50
2023-05-31T01:53:06.904Z,1.51
2023-05-31T01:54:06.939Z,1.48
2023-05-31T01:55:06.953Z,1.52
2023-05-31T01:56:07.004Z,1.53
2023-05-31T01:57:07.168Z,1.51
2023-05-31T01:58:07.113Z,1.50
2023-05-31T01:59:07.183Z,1.53
2023-05-31T02:00:07.239Z,1.53
2023-05-31T02:01:07.338Z,1.50
2023-05-31T02:02:07.375Z,1.49
2023-05-31T02:03:07.520Z,1.54
2023-05-31T02:04:07.465Z,1.53
2023-05-31T02:05:07.527Z,1.55
2023-05-31T02:06:07.598Z,1.50
2023-05-31T02:07:07.642Z,1.50
2023-05-31T02:08:07.736Z,1.54
2023-05-31T02:09:07.768Z,1.52
2023-05-31T02:10:07.787Z,1.53
2023-05-31T02:11:07.880Z,1.50
2023-05-31T02:12:08.003Z,1.51
2023-05-31T02:13:08.004Z,1.52
2023-05-31T02:14:08.050Z,1.50
2023-05-31T02:15:08.108Z,1.52
2023-05-31T02:16:08.189Z,1.56
2023-05-31T02:17:08.256Z,1.54
2023-05-31T02:18:08.296Z,1.54
2023-05-31T02:19:08.282Z,1.55
2023-05-31T02:20:08.317Z,1.55
2023-05-31T02:21:08.405Z,1.53
2023-05-31T02:22:08.419Z,1.58
2023-05-31T02:23:08.461Z,1.56
2023-05-31T02:24:08.523Z,1.55
2023-05-31T02:25:08.567Z,1.51
2023-05-31T02:26:08.588Z,1.52
2023-05-31T02:27:08.663Z,1.56
2023-05-31T02:28:08.681Z,1.53
2023-05-31T02:29:08.772Z,1.57
2023-05-31T02:30:08.784Z,1.52
2023-05-31T02:31:08.879Z,1.54
2023-05-31T02:32:08.893Z,1.55
2023-05-31T02:33:08.884Z,1.55
2023-05-31T02:34:08.965Z,1.56
2023-05-31T02:35:09.020Z,1.55
2023-05-31T02:36:09.048Z,1.54
2023-05-31T02:37:09.138Z,1.55
2023-05-31T02:38:09.132Z,1.57
2023-05-31T02:39:09.143Z,1.57
2023-05-31T02:40:09.224Z,1.55
2023-05-31T02:41:09.179Z,1.56
2023-05-31T02:42:09.211Z,1.56
2023-05-31T02:43:09.223Z,1.56
2023-05-31T02:44:09.230Z,1.55
2023-05-31T02:45:09.265Z,1.57
2023-05-31T02:46:09.360Z,1.56
2023-05-31T02:47:09.289Z,1.54
2023-05-31T02:48:09.321Z,1.53
2023-05-31T02:49:09.315Z,1.54
2023-05-31T02:50:09.374Z,1.52
2023-05-31T02:51:09.326Z,1.53
2023-05-31T02:52:09.308Z,1.56
2023-05-31T02:53:09.400Z,1.53
2023-05-31T02:54:09.382Z,1.55
2023-05-31T02:55:09.356Z,1.54
2023-05-31T02:56:09.433Z,1.55
2023-05-31T02:57:09.473Z,1.54
2023-05-31T02:58:09.476Z,1.57
2023-05-31T02:59:09.475Z,1.56
2023-05-31T03:00:09.565Z,1.58
2023-05-31T03:01:09.505Z,1.56
2023-05-31T03:02:09.683Z,1.59
2023-05-31T03:03:09.670Z,1.57
2023-05-31T03:04:09.589Z,1.54
2023-05-31T03:05:09.604Z,1.57
2023-05-31T03:06:09.626Z,1.57
2023-05-31T03:07:09.613Z,1.57
2023-05-31T03:08:09.609Z,1.52
2023-05-31T03:09:09.663Z,1.57
2023-05-31T03:10:09.673Z,1.58
2023-05-31T03:11:09.733Z,1.57
2023-05-31T03:12:09.743Z,1.58
2023-05-31T03:13:09.785Z,1.55
2023-05-31T03:14:09.800Z,1.56
2023-05-31T03:15:09.859Z,1.56
2023-05-31T03:16:09.903Z,1.57
2023-05-31T03:17:09.872Z,1.58
2023-05-31T03:18:09.891Z,1.56
2023-05-31T03:19:09.929Z,1.56
2023-05-31T03:20:10.339Z,1.59
2023-05-31T03:21:09.942Z,1.57
2023-05-31T03:22:10.031Z,1.58
2023-05-31T03:23:10.043Z,1.59
2023-05-31T03:24:10.045Z,1.61
2023-05-31T03:25:10.029Z,1.58
2023-05-31T03:26:10.041Z,1.58
2023-05-31T03:27:10.048Z,1.58
2023-05-31T03:28:10.101Z,1.58
2023-05-31T03:29:10.116Z,1.59
2023-05-31T03:30:10.174Z,1.59
2023-05-31T03:31:10.112Z,1.61
2023-05-31T03:32:10.139Z,1.58
2023-05-31T03:33:10.203Z,1.63
2023-05-31T03:34:10.209Z,1.60
2023-05-31T03:35:10.208Z,1.61
2023-05-31T03:36:10.260Z,1.63
2023-05-31T03:37:10.216Z,1.62
2023-05-31T03:38:10.239Z,1.60
2023-05-31T03:39:10.233Z,1.57
2023-05-31T03:40:10.297Z,1.61
2023-05-31T03:41:10.249Z,1.59
2023-05-31T03:42:10.265Z,1.62
2023-05-31T03:43:10.263Z,1.61
2023-05-31T03:44:10.275Z,1.61
2023-05-31T03:45:10.275Z,1.61
2023-05-31T03:46:10.362Z,1.61
2023-05-31T03:47:10.285Z,1.61
2023-05-31T03:48:10.375Z,1.60
2023-05-31T03:49:10.358Z,1.62
2023-05-31T03:50:10.416Z,1.61
2023-05-31T03:51:10.459Z,1.63
2023-05-31T03:52:10.538Z,1.60
2023-05-31T03:53:10.571Z,1.60
2023-05-31T03:54:10.645Z,1.58
2023-05-31T03:55:10.695Z,1.60
2023-05-31T03:56:10.765Z,1.55
2023-05-31T03:57:10.804Z,1.58
2023-05-31T03:58:10.877Z,1.59
2023-05-31T03:59:10.922Z,1.62
2023-05-31T04:00:11.008Z,1.59
2023-05-31T04:01:11.107Z,1.57
2023-05-31T04:02:11.247Z,1.58
2023-05-31T04:03:11.247Z,1.60
2023-05-31T04:04:11.435Z,1.58
2023-05-31T04:05:11.365Z,1.54
2023-05-31T04:06:11.356Z,1.52
2023-05-31T04:07:11.394Z,1.49
2023-05-31T04:08:11.459Z,1.47
2023-05-31T04:09:11.513Z,1.43
2023-05-31T04:10:11.536Z,1.37
2023-05-31T04:11:11.582Z,1.33
2023-05-31T04:12:11.715Z,1.33
2023-05-31T04:13:11.698Z,1.29
2023-05-31T04:14:11.701Z,1.26
2023-05-31T04:15:11.738Z,1.19
2023-05-31T04:16:11.862Z,1.15
2023-05-31T04:17:11.809Z,1.17
2023-05-31T04:18:11.885Z,1.12
2023-05-31T04:19:11.874Z,1.13
2023-05-31T04:20:11.932Z,1.12
2023-05-31T04:21:11.842Z,1.09
2023-05-31T04:22:11.893Z,1.06
2023-05-31T04:23:11.914Z,1.04
2023-05-31T04:24:11.981Z,1.04
2023-05-31T04:25:12.016Z,0.97
2023-05-31T04:26:12.042Z,0.91
2023-05-31T04:27:12.046Z,0.88
2023-05-31T04:28:12.108Z,0.85
2023-05-31T04:29:12.114Z,0.84
2023-05-31T04:30:12.161Z,0.82
2023-05-31T04:31:12.149Z,0.83
2023-05-31T04:32:12.223Z,0.82
2023-05-31T04:33:12.220Z,0.85
2023-05-31T04:34:12.249Z,0.82
2023-05-31T04:35:12.252Z,0.86
2023-05-31T04:36:12.249Z,0.82
2023-05-31T04:37:12.267Z,0.83
2023-05-31T04:38:12.320Z,0.85
2023-05-31T04:39:12.379Z,0.83
2023-05-31T04:40:12.435Z,0.85
2023-05-31T04:41:12.504Z,0.86
2023-05-31T04:42:12.560Z,0.88
2023-05-31T04:43:12.524Z,0.89
2023-05-31T04:44:12.509Z,0.91
2023-05-31T04:45:12.458Z,0.91
2023-05-31T04:46:12.572Z,0.92
2023-05-31T04:47:12.540Z,0.94
2023-05-31T04:48:12.554Z,0.95
2023-05-31T04:49:12.625Z,0.97
2023-05-31T04:50:12.666Z,1.01
2023-05-31T04:51:12.764Z,1.02
2023-05-31T04:52:12.734Z,1.03
2023-05-31T04:53:12.789Z,1.03
2023-05-31T04:54:12.856Z,1.01
2023-05-31T04:55:12.950Z,0.91
2023-05-31T04:56:12.907Z,0.83
2023-05-31T04:57:12.957Z,0.79
2023-05-31T04:58:13.028Z,0.76
2023-05-31T04:59:13.147Z,0.75
2023-05-31T05:00:13.087Z,0.72
2023-05-31T05:01:13.113Z,0.74
2023-05-31T05:02:13.094Z,0.74
2023-05-31T05:03:13.191Z,0.69
2023-05-31T05:04:13.161Z,0.65
2023-05-31T05:05:13.126Z,0.63
2023-05-31T05:06:13.180Z,0.60
2023-05-31T05:07:13.226Z,0.60
2023-05-31T05:08:13.302Z,0.59
2023-05-31T05:09:13.355Z,0.59
2023-05-31T05:10:13.368Z,0.59
2023-05-31T05:11:13.372Z,0.60
2023-05-31T05:12:13.364Z,0.61
2023-05-31T05:13:13.368Z,0.63
2023-05-31T05:14:13.381Z,0.59
2023-05-31T05:15:13.381Z,0.59
2023-05-31T05:16:13.392Z,0.58
2023-05-31T05:17:13.453Z,0.56
2023-05-31T05:18:13.470Z,0.57
2023-05-31T05:19:13.420Z,0.55
2023-05-31T05:20:13.574Z,0.54
2023-05-31T05:21:13.525Z,0.56
2023-05-31T05:22:13.597Z,0.54
2023-05-31T05:23:13.644Z,0.55
2023-05-31T05:24:13.670Z,0.56
2023-05-31T05:25:13.718Z,0.56
2023-05-31T05:26:13.767Z,0.56
2023-05-31T05:27:13.792Z,0.59
2023-05-31T05:28:13.800Z,0.59
2023-05-31T05:29:13.844Z,0.53
2023-05-31T05:30:13.931Z,0.51
2023-05-31T05:31:13.994Z,0.51
2023-05-31T05:32:13.969Z,0.50
2023-05-31T05:33:13.972Z,0.50
2023-05-31T05:34:14.028Z,0.52
2023-05-31T05:35:14.088Z,0.53
2023-05-31T05:36:14.097Z,0.52
2023-05-31T05:37:14.154Z,0.50
2023-05-31T05:38:14.213Z,0.50
2023-05-31T05:39:14.289Z,0.51
2023-05-31T05:40:14.302Z,0.52
2023-05-31T05:41:14.352Z,0.50
2023-05-31T05:42:14.384Z,0.53
2023-05-31T05:43:14.563Z,0.50
2023-05-31T05:44:14.518Z,0.53
2023-05-31T05:45:14.578Z,0.51
2023-05-31T05:46:14.747Z,0.52
2023-05-31T05:47:14.626Z,0.55
2023-05-31T05:48:14.724Z,0.58
2023-05-31T05:49:14.982Z,0.62
2023-05-31T05:50:14.822Z,0.66
2023-05-31T05:51:14.883Z,0.66
2023-05-31T05:52:15.096Z,0.68
2023-05-31T05:53:14.880Z,0.69
2023-05-31T05:54:14.864Z,0.69
2023-05-31T05:55:14.948Z,0.69
2023-05-31T05:56:15.025Z,0.69
2023-05-31T05:57:14.962Z,0.68
2023-05-31T05:58:15.030Z,0.67
2023-05-31T05:59:15.028Z,0.67
2023-05-31T06:00:15.024Z,0.65
2023-05-31T06:01:15.033Z,0.66
2023-05-31T06:02:15.559Z,0.67
2023-05-31T06:03:15.218Z,0.67
2023-05-31T06:04:15.168Z,0.64
2023-05-31T06:05:15.120Z,0.64
2023-05-31T06:06:15.221Z,0.63
2023-05-31T06:07:15.538Z,0.64
2023-05-31T06:08:15.203Z,0.65
2023-05-31T06:09:15.181Z,0.66
2023-05-31T06:10:15.200Z,0.63
2023-05-31T06:11:15.263Z,0.62
2023-05-31T06:12:15.221Z,0.61
2023-05-31T06:13:15.206Z,0.60
2023-05-31T06:14:15.295Z,0.63
2023-05-31T06:15:15.247Z,0.61
2023-05-31T06:16:15.347Z,0.61
2023-05-31T06:17:15.340Z,0.62
2023-05-31T06:18:15.330Z,0.61
2023-05-31T06:19:15.350Z,0.61
2023-05-31T06:20:15.442Z,0.63
2023-05-31T06:21:15.375Z,0.60
2023-05-31T06:22:15.378Z,0.61
2023-05-31T06:23:15.321Z,0.61
2023-05-31T06:24:15.354Z,0.64
2023-05-31T06:25:15.381Z,0.61
2023-05-31T06:26:15.376Z,0.61
2023-05-31T06:27:15.407Z,0.61
2023-05-31T06:28:15.414Z,0.61
2023-05-31T06:29:15.431Z,0.60
2023-05-31T06:30:15.420Z,0.60
2023-05-31T06:31:15.424Z,0.58
2023-05-31T06:32:15.468Z,0.57
2023-05-31T06:33:15.509Z,0.55
2023-05-31T06:34:15.465Z,0.51
2023-05-31T06:35:15.483Z,0.50
2023-05-31T06:36:15.476Z,0.50
2023-05-31T06:37:15.488Z,0.50
2023-05-31T06:38:15.489Z,0.51
2023-05-31T06:39:15.572Z,0.48
2023-05-31T06:40:15.572Z,0.48
2023-05-31T06:41:15.584Z,0.47
2023-05-31T06:42:15.581Z,0.61
2023-05-31T06:43:15.630Z,0.67
2023-05-31T06:44:15.659Z,0.71
2023-05-31T06:45:15.731Z,0.72
2023-05-31T06:46:15.713Z,0.74
2023-05-31T06:47:15.721Z,0.77
2023-05-31T06:48:15.676Z,0.75
2023-05-31T06:49:15.735Z,0.76
2023-05-31T06:50:15.747Z,0.75
2023-05-31T06:51:15.740Z,0.72
2023-05-31T06:52:15.707Z,0.64
2023-05-31T06:53:15.766Z,0.57
2023-05-31T06:54:15.743Z,0.57
2023-05-31T06:55:15.726Z,0.56
2023-05-31T06:56:15.779Z,0.55
2023-05-31T06:57:15.718Z,0.57
2023-05-31T06:58:15.791Z,0.57
2023-05-31T06:59:15.735Z,0.50
2023-05-31T07:00:15.793Z,0.52
2023-05-31T07:01:15.756Z,0.54
2023-05-31T07:02:15.755Z,0.55
2023-05-31T07:03:15.919Z,0.58
2023-05-31T07:04:15.785Z,0.63
2023-05-31T07:05:15.773Z,0.64
2023-05-31T07:06:15.800Z,0.67
2023-05-31T07:07:15.793Z,0.63
2023-05-31T07:08:15.823Z,0.65
2023-05-31T07:09:15.792Z,0.66
2023-05-31T07:10:15.811Z,0.66
2023-05-31T07:11:15.840Z,0.66
2023-05-31T07:12:15.807Z,0.65
2023-05-31T07:13:15.848Z,0.65
2023-05-31T07:14:15.902Z,0.64
2023-05-31T07:15:15.844Z,0.64
2023-05-31T07:16:16.043Z,0.64
2023-05-31T07:17:15.964Z,0.62
2023-05-31T07:18:15.964Z,0.62
2023-05-31T07:19:15.931Z,0.59
2023-05-31T07:20:16.046Z,0.60
2023-05-31T07:21:15.981Z,0.58
2023-05-31T07:22:15.995Z,0.56
2023-05-31T07:23:16.075Z,0.56
2023-05-31T07:24:16.112Z,0.54
2023-05-31T07:25:16.200Z,0.57
2023-05-31T07:26:16.235Z,0.56
2023-05-31T07:27:16.222Z,0.56
2023-05-31T07:28:16.310Z,0.56
2023-05-31T07:29:16.345Z,0.55
2023-05-31T07:30:16.448Z,0.55
2023-05-31T07:31:16.621Z,0.56
2023-05-31T07:32:16.534Z,0.57
2023-05-31T07:33:21.936Z,0.56
2023-05-31T07:34:17.546Z,0.56
2023-05-31T07:35:16.606Z,0.56
2023-05-31T07:36:16.542Z,0.55
2023-05-31T07:37:16.546Z,0.56
2023-05-31T07:38:16.575Z,0.56
2023-05-31T07:39:16.598Z,0.54
2023-05-31T07:40:16.545Z,0.41
2023-05-31T07:41:16.538Z,0.34
2023-05-31T07:42:16.522Z,0.36
2023-05-31T07:43:16.487Z,0.36
2023-05-31T07:44:16.476Z,0.43
2023-05-31T07:45:16.481Z,0.52
2023-05-31T07:46:16.526Z,0.55
2023-05-31T07:47:16.471Z,0.59
2023-05-31T07:48:16.510Z,0.65
2023-05-31T07:49:16.508Z,0.73
2023-05-31T07:50:16.476Z,0.74
2023-05-31T07:51:16.461Z,0.79
2023-05-31T07:52:16.492Z,0.85
2023-05-31T07:53:16.491Z,1.02
2023-05-31T07:54:16.466Z,1.07
2023-05-31T07:55:16.461Z,1.13
2023-05-31T07:56:16.484Z,1.16
2023-05-31T07:57:16.480Z,1.21
2023-05-31T07:58:16.524Z,1.28
2023-05-31T07:59:16.509Z,1.33
2023-05-31T08:00:16.684Z,1.26
2023-05-31T08:01:16.584Z,1.32
2023-05-31T08:02:16.654Z,1.33
2023-05-31T08:03:16.685Z,1.33
2023-05-31T08:04:16.637Z,1.25
2023-05-31T08:05:16.620Z,1.34
2023-05-31T08:06:16.600Z,1.37
2023-05-31T08:07:16.594Z,1.42
2023-05-31T08:08:16.610Z,1.37
2023-05-31T08:09:16.598Z,1.44
2023-05-31T08:10:16.756Z,1.08
2023-05-31T08:11:16.638Z,0.78
2023-05-31T08:12:16.931Z,0.97
2023-05-31T08:13:16.651Z,1.12
2023-05-31T08:14:16.635Z,1.19
2023-05-31T08:15:16.643Z,1.21
2023-05-31T08:16:16.659Z,1.29
2023-05-31T08:17:16.861Z,1.36
2023-05-31T08:18:16.720Z,1.45
2023-05-31T08:19:16.732Z,1.47
2023-05-31T08:20:16.749Z,1.54
2023-05-31T08:21:16.720Z,1.57
2023-05-31T08:22:16.740Z,1.56
2023-05-31T08:23:16.728Z,1.55
2023-05-31T08:24:16.724Z,1.62
2023-05-31T08:25:16.743Z,1.77
2023-05-31T08:26:16.788Z,1.27
2023-05-31T08:27:16.763Z,1.02
2023-05-31T08:28:16.749Z,0.78
2023-05-31T08:29:16.789Z,0.51
2023-05-31T08:30:16.843Z,0.42
2023-05-31T08:31:16.963Z,0.41
2023-05-31T08:32:16.915Z,0.42
2023-05-31T08:33:17.085Z,0.45
2023-05-31T08:34:17.030Z,0.50
2023-05-31T08:35:17.049Z,0.50
2023-05-31T08:36:17.123Z,0.54
2023-05-31T08:37:17.168Z,0.50
2023-05-31T08:38:17.247Z,0.50
2023-05-31T08:39:17.317Z,0.50
2023-05-31T08:40:17.368Z,0.50
2023-05-31T08:41:17.463Z,0.49
2023-05-31T08:42:17.446Z,0.50
2023-05-31T08:43:17.685Z,0.52
2023-05-31T08:44:17.514Z,0.58
2023-05-31T08:45:17.635Z,0.61
2023-05-31T08:46:17.654Z,0.66
2023-05-31T08:47:17.755Z,0.85
2023-05-31T08:48:17.724Z,0.92
2023-05-31T08:49:17.764Z,1.04
2023-05-31T08:50:17.759Z,1.15
2023-05-31T08:51:17.776Z,1.34
2023-05-31T08:52:17.831Z,1.43
2023-05-31T08:53:17.781Z,1.63
2023-05-31T08:54:17.828Z,1.80
2023-05-31T08:55:17.796Z,1.87
2023-05-31T08:56:17.849Z,1.80
2023-05-31T08:57:17.863Z,1.89
2023-05-31T08:58:17.870Z,1.92
2023-05-31T08:59:17.903Z,1.97
2023-05-31T09:00:18.016Z,2.01
2023-05-31T09:01:18.129Z,2.03
2023-05-31T09:02:18.085Z,2.16
2023-05-31T09:03:18.139Z,2.10
2023-05-31T09:04:18.202Z,2.17
2023-05-31T09:05:18.306Z,2.27
2023-05-31T09:06:18.413Z,2.21
2023-05-31T09:07:18.381Z,2.15
2023-05-31T09:08:18.442Z,2.13
2023-05-31T09:09:18.444Z,2.31
2023-05-31T09:10:18.463Z,2.25
2023-05-31T09:11:18.549Z,2.31
2023-05-31T09:12:18.530Z,2.40
2023-05-31T09:13:18.582Z,2.53
2023-05-31T09:14:18.607Z,2.56
2023-05-31T09:15:18.659Z,2.68
2023-05-31T09:16:18.725Z,2.74
2023-05-31T09:17:18.708Z,2.58
2023-05-31T09:18:18.677Z,2.70
2023-05-31T09:19:18.738Z,2.79
2023-05-31T09:20:18.817Z,2.90
2023-05-31T09:21:18.771Z,2.77
2023-05-31T09:22:18.781Z,3.11
2023-05-31T09:23:18.829Z,3.20
2023-05-31T09:24:18.825Z,3.09
2023-05-31T09:25:18.823Z,3.03
2023-05-31T09:26:18.841Z,2.96
2023-05-31T09:27:18.810Z,3.05
2023-05-31T09:28:18.822Z,3.15
2023-05-31T09:29:18.972Z,3.23
2023-05-31T09:30:18.934Z,3.31
2023-05-31T09:31:19.280Z,2.83
2023-05-31T09:32:18.876Z,2.45
2023-05-31T09:33:18.855Z,2.70
2023-05-31T09:34:18.895Z,1.88
2023-05-31T09:35:18.963Z,1.70
2023-05-31T09:36:18.979Z,1.22
2023-05-31T09:37:19.001Z,1.09
2023-05-31T09:38:19.562Z,1.12
2023-05-31T09:39:19.080Z,1.20
2023-05-31T09:40:19.173Z,1.31
2023-05-31T09:41:19.169Z,1.31
2023-05-31T09:42:19.191Z,1.49
2023-05-31T09:43:19.219Z,1.52
2023-05-31T09:44:19.218Z,1.60
2023-05-31T09:45:19.266Z,1.71
2023-05-31T09:46:19.361Z,1.82
2023-05-31T09:47:19.313Z,2.02
2023-05-31T09:48:19.362Z,2.27
2023-05-31T09:49:19.359Z,2.30
2023-05-31T09:50:19.404Z,2.32
2023-05-31T09:51:19.434Z,2.45
2023-05-31T09:52:19.340Z,2.63
2023-05-31T09:53:19.445Z,2.88
2023-05-31T09:54:19.378Z,2.82
2023-05-31T09:55:19.329Z,2.79
2023-05-31T09:56:19.345Z,2.75
2023-05-31T09:57:19.404Z,2.87
2023-05-31T09:58:19.357Z,2.86
2023-05-31T09:59:19.408Z,2.97
2023-05-31T10:00:19.442Z,3.30
2023-05-31T10:01:19.495Z,3.74
2023-05-31T10:02:19.514Z,3.34
2023-05-31T10:03:19.493Z,2.20
2023-05-31T10:04:19.535Z,1.81
2023-05-31T10:05:19.546Z,1.78
2023-05-31T10:06:19.509Z,1.92
2023-05-31T10:07:19.542Z,1.92
2023-05-31T10:08:19.555Z,1.93
2023-05-31T10:09:19.562Z,2.05
2023-05-31T10:10:19.570Z,2.20
2023-05-31T10:11:19.637Z,2.23
2023-05-31T10:12:19.618Z,2.28
2023-05-31T10:13:19.707Z,2.43
2023-05-31T10:14:19.719Z,2.39
2023-05-31T10:15:19.756Z,2.47
2023-05-31T10:16:19.983Z,2.64
2023-05-31T10:17:19.819Z,2.72
2023-05-31T10:18:19.941Z,2.67
2023-05-31T10:19:19.978Z,2.75
2023-05-31T10:20:20.078Z,2.76
2023-05-31T10:21:20.100Z,2.88
2023-05-31T10:22:20.107Z,2.82
2023-05-31T10:23:20.190Z,2.82
2023-05-31T10:24:20.190Z,3.14
2023-05-31T10:25:20.189Z,1.96
2023-05-31T10:26:20.213Z,1.10
2023-05-31T10:27:20.214Z,0.65
2023-05-31T10:28:20.270Z,0.54
2023-05-31T10:29:20.301Z,0.42
2023-05-31T10:30:20.304Z,0.37
2023-05-31T10:31:20.414Z,0.43
2023-05-31T10:32:20.315Z,0.56
2023-05-31T10:33:20.374Z,0.61
2023-05-31T10:34:20.418Z,0.72
2023-05-31T10:35:20.472Z,0.87
2023-05-31T10:36:20.550Z,0.95
2023-05-31T10:37:20.565Z,1.06
2023-05-31T10:38:20.589Z,1.32
2023-05-31T10:39:20.603Z,1.43
2023-05-31T10:40:20.672Z,1.47
2023-05-31T10:41:25.800Z,1.55
2023-05-31T10:42:21.652Z,1.55
2023-05-31T10:43:20.634Z,1.60
2023-05-31T10:44:20.634Z,1.78
2023-05-31T10:45:20.638Z,2.23
2023-05-31T10:46:20.714Z,2.77
2023-05-31T10:47:20.607Z,2.99
2023-05-31T10:48:20.573Z,3.37
2023-05-31T10:49:20.640Z,3.47
2023-05-31T10:50:20.616Z,3.48
2023-05-31T10:51:20.612Z,3.81
2023-05-31T10:52:20.584Z,4.16
2023-05-31T10:53:20.606Z,4.12
2023-05-31T10:54:20.570Z,4.40
2023-05-31T10:55:20.576Z,4.26
2023-05-31T10:56:20.539Z,4.23
2023-05-31T10:57:20.546Z,4.51
2023-05-31T10:58:20.522Z,4.87
2023-05-31T10:59:20.529Z,4.97
2023-05-31T11:00:20.515Z,4.83
2023-05-31T11:01:20.584Z,4.61
2023-05-31T11:02:20.560Z,4.61
2023-05-31T11:03:20.803Z,4.94
2023-05-31T11:04:20.780Z,5.22
2023-05-31T11:05:20.750Z,5.41
2023-05-31T11:06:20.781Z,5.67
2023-05-31T11:07:20.866Z,5.33
2023-05-31T11:08:20.926Z,5.21
2023-05-31T11:09:20.977Z,5.14
2023-05-31T11:10:21.011Z,5.36
2023-05-31T11:11:21.100Z,5.47
2023-05-31T11:12:21.136Z,5.73
2023-05-31T11:13:23.202Z,5.89
2023-05-31T11:14:21.216Z,5.73
2023-05-31T11:15:21.230Z,5.98
2023-05-31T11:16:21.241Z,5.87
2023-05-31T11:17:21.240Z,6.00
2023-05-31T11:18:21.140Z,6.17
2023-05-31T11:19:21.134Z,6.38
2023-05-31T11:20:21.197Z,6.55
2023-05-31T11:21:21.205Z,6.13
2023-05-31T11:22:21.138Z,6.24
2023-05-31T11:23:21.154Z,5.14
2023-05-31T11:24:21.105Z,5.98
2023-05-31T11:25:23.307Z,5.85
2023-05-31T11:26:21.165Z,5.86
2023-05-31T11:27:21.093Z,5.89
2023-05-31T11:28:21.100Z,5.85
2023-05-31T11:29:21.107Z,5.61
2023-05-31T11:30:21.126Z,5.23
2023-05-31T11:31:22.778Z,4.79
2023-05-31T11:32:21.062Z,4.31
2023-05-31T11:33:21.069Z,4.24
2023-05-31T11:34:21.140Z,3.91
2023-05-31T11:35:21.086Z,3.34
2023-05-31T11:36:21.163Z,3.36
2023-05-31T11:37:23.910Z,3.53
2023-05-31T11:38:21.120Z,3.17
2023-05-31T11:39:21.112Z,3.00
2023-05-31T11:40:21.120Z,3.15
2023-05-31T11:41:21.096Z,3.02
2023-05-31T11:42:21.084Z,3.03
2023-05-31T11:43:21.145Z,2.62
2023-05-31T11:44:21.088Z,2.07
2023-05-31T11:45:21.100Z,1.54
2023-05-31T11:46:21.082Z,1.11
2023-05-31T11:47:22.034Z,0.89
2023-05-31T11:48:21.072Z,1.05
2023-05-31T11:49:21.093Z,1.12
2023-05-31T11:50:21.050Z,1.18
2023-05-31T11:51:21.032Z,1.15
2023-05-31T11:52:21.082Z,1.13
2023-05-31T11:53:21.023Z,1.14
2023-05-31T11:54:21.016Z,1.15
2023-05-31T11:55:20.996Z,1.15
2023-05-31T11:56:21.024Z,1.13
2023-05-31T11:57:20.996Z,1.10
2023-05-31T11:58:20.999Z,1.04
2023-05-31T11:59:20.997Z,1.05
2023-05-31T12:00:20.944Z,1.02
2023-05-31T12:01:20.965Z,0.98
2023-05-31T12:02:21.046Z,0.97
2023-05-31T12:03:21.080Z,0.95
2023-05-31T12:04:20.967Z,1.01
2023-05-31T12:05:20.948Z,0.99
2023-05-31T12:06:22.846Z,0.99
2023-05-31T12:07:20.933Z,0.99
2023-05-31T12:08:20.913Z,0.99
2023-05-31T12:09:20.978Z,1.01
2023-05-31T12:10:20.917Z,1.03
2023-05-31T12:11:20.876Z,1.01
2023-05-31T12:12:20.953Z,1.03
2023-05-31T12:13:20.917Z,1.06
2023-05-31T12:14:20.917Z,1.06
2023-05-31T12:15:20.838Z,1.04
2023-05-31T12:16:20.873Z,1.04
2023-05-31T12:17:20.939Z,1.04
2023-05-31T12:18:20.853Z,1.01
2023-05-31T12:19:20.841Z,1.06
2023-05-31T12:20:20.831Z,1.03
2023-05-31T12:21:20.844Z,1.06
2023-05-31T12:22:20.785Z,1.09
2023-05-31T12:23:20.809Z,1.12
2023-05-31T12:24:20.822Z,1.15
2023-05-31T12:25:20.817Z,1.05
2023-05-31T12:26:20.766Z,1.01
2023-05-31T12:27:22.666Z,1.07
2023-05-31T12:28:21.765Z,1.07
2023-05-31T12:29:20.788Z,1.08
2023-05-31T12:30:20.824Z,1.08
2023-05-31T12:31:20.762Z,1.10
2023-05-31T12:32:20.769Z,1.14
2023-05-31T12:33:20.751Z,1.17
2023-05-31T12:34:20.751Z,1.10
2023-05-31T12:35:20.750Z,1.10
2023-05-31T12:36:20.748Z,1.08
2023-05-31T12:37:20.751Z,1.06
2023-05-31T12:38:20.691Z,1.07
2023-05-31T12:39:20.704Z,1.07
2023-05-31T12:40:22.902Z,1.06
2023-05-31T12:41:20.681Z,1.02
2023-05-31T12:42:21.889Z,1.00
2023-05-31T12:43:20.718Z,1.00
2023-05-31T12:44:20.683Z,1.00
2023-05-31T12:45:20.675Z,0.96
2023-05-31T12:46:20.700Z,0.97
2023-05-31T12:47:20.633Z,0.99
2023-05-31T12:48:20.798Z,1.00
2023-05-31T12:49:20.647Z,0.96
2023-05-31T12:50:20.649Z,0.99
2023-05-31T12:51:20.626Z,1.02
2023-05-31T12:52:20.588Z,1.05
2023-05-31T12:53:20.604Z,1.08
2023-05-31T12:54:20.584Z,1.09
2023-05-31T12:55:20.568Z,1.15
2023-05-31T12:56:20.589Z,1.17
2023-05-31T12:57:20.550Z,1.15
2023-05-31T12:58:20.600Z,1.10
2023-05-31T12:59:20.538Z,1.03
2023-05-31T13:00:20.558Z,1.01
2023-05-31T13:01:20.560Z,1.06
2023-05-31T13:02:20.626Z,1.13
2023-05-31T13:03:20.643Z,1.19
2023-05-31T13:04:20.617Z,1.20
2023-05-31T13:05:20.689Z,1.36
2023-05-31T13:06:20.754Z,1.33
2023-05-31T13:07:20.804Z,1.39
2023-05-31T13:08:20.870Z,1.47
2023-05-31T13:09:20.931Z,1.52
2023-05-31T13:10:20.987Z,1.52
2023-05-31T13:11:20.998Z,1.55
2023-05-31T13:12:21.054Z,1.51
2023-05-31T13:13:21.114Z,1.51
2023-05-31T13:14:25.282Z,1.42
2023-05-31T13:15:22.215Z,1.43
2023-05-31T13:16:21.131Z,1.43
2023-05-31T13:17:21.192Z,1.43
2023-05-31T13:18:21.152Z,1.40